createdAt,value
2022-11-14T00:01:10.230Z,95.40
2022-11-14T00:03:37.014Z,95.40
2022-11-14T00:06:07.504Z,95.30
2022-11-14T00:08:34.783Z,95.30
2022-11-14T00:11:01.555Z,95.30
2022-11-14T00:13:28.309Z,95.30
2022-11-14T00:15:55.203Z,95.30
2022-11-14T00:18:22.435Z,95.30
2022-11-14T00:20:50.430Z,95.30
2022-11-14T00:23:17.990Z,95.30
2022-11-14T00:25:45.784Z,95.30
2022-11-14T00:28:13.244Z,95.30
2022-11-14T00:30:39.954Z,95.30
2022-11-14T00:33:06.678Z,95.30
2022-11-14T00:35:33.404Z,95.30
2022-11-14T00:38:00.775Z,95.30
2022-11-14T00:40:27.535Z,95.30
2022-11-14T00:42:54.832Z,95.30
2022-11-14T00:45:21.734Z,95.30
2022-11-14T00:47:48.453Z,95.30
2022-11-14T00:50:16.685Z,95.30
2022-11-14T00:52:43.384Z,95.30
2022-11-14T00:55:10.175Z,95.30
2022-11-14T00:57:36.866Z,95.30
2022-11-14T01:00:05.426Z,95.30
2022-11-14T01:02:32.148Z,95.30
2022-11-14T01:04:58.842Z,95.30
2022-11-14T01:07:25.579Z,95.30
2022-11-14T01:09:52.322Z,95.30
2022-11-14T01:12:19.787Z,95.30
2022-11-14T01:14:46.574Z,95.30
2022-11-14T01:17:13.311Z,95.30
2022-11-14T01:19:40.757Z,95.30
2022-11-14T01:22:07.590Z,95.30
2022-11-14T01:24:34.607Z,95.20
2022-11-14T01:27:01.773Z,95.20
2022-11-14T01:29:28.649Z,95.30
2022-11-14T01:31:56.087Z,95.20
2022-11-14T01:34:23.667Z,95.30
2022-11-14T01:36:50.484Z,95.30
2022-11-14T01:39:17.209Z,95.30
2022-11-14T01:41:44.194Z,95.30
2022-11-14T01:44:17.637Z,95.30
2022-11-14T01:46:48.693Z,95.30
2022-11-14T01:49:27.217Z,95.30
2022-11-14T01:52:03.330Z,95.30
2022-11-14T01:54:34.726Z,95.30
2022-11-14T01:57:04.334Z,95.30
2022-11-14T01:59:44.915Z,95.30
2022-11-14T02:02:17.974Z,95.30
2022-11-14T02:04:53.660Z,95.30
2022-11-14T02:07:20.678Z,95.30
2022-11-14T02:09:48.911Z,95.30
2022-11-14T02:12:18.140Z,95.30
2022-11-14T02:14:47.056Z,95.30
2022-11-14T02:17:28.924Z,95.30
2022-11-14T02:20:10.844Z,95.30
2022-11-14T02:22:41.684Z,95.30
2022-11-14T02:25:10.476Z,95.30
2022-11-14T02:27:39.229Z,95.30
2022-11-14T02:30:07.369Z,95.30
2022-11-14T02:32:56.954Z,95.30
2022-11-14T02:35:21.060Z,95.30
2022-11-14T02:37:47.744Z,95.30
2022-11-14T02:40:14.522Z,95.30
2022-11-14T02:42:41.635Z,95.30
2022-11-14T02:45:09.651Z,95.30
2022-11-14T02:47:36.416Z,95.30
2022-11-14T02:50:03.536Z,95.40
2022-11-14T02:52:30.216Z,95.40
2022-11-14T02:54:56.980Z,95.40
2022-11-14T02:57:23.680Z,95.40
2022-11-14T02:59:50.384Z,95.40
2022-11-14T03:02:17.070Z,95.40
2022-11-14T03:04:43.818Z,95.40
2022-11-14T03:07:10.594Z,95.40
2022-11-14T03:09:37.340Z,95.40
2022-11-14T03:12:04.332Z,95.40
2022-11-14T03:14:31.822Z,95.40
2022-11-14T03:16:58.769Z,95.40
2022-11-14T03:19:25.505Z,95.40
2022-11-14T03:21:52.258Z,95.40
2022-11-14T03:24:19.070Z,95.40
2022-11-14T03:26:45.756Z,95.40
2022-11-14T03:29:12.493Z,95.40
2022-11-14T03:31:39.185Z,95.40
2022-11-14T03:34:05.870Z,95.40
2022-11-14T03:36:33.816Z,95.40
2022-11-14T03:39:00.498Z,95.40
2022-11-14T03:41:27.184Z,95.40
2022-11-14T03:43:54.168Z,95.40
2022-11-14T03:46:21.100Z,95.40
2022-11-14T03:48:47.807Z,95.40
2022-11-14T03:51:14.689Z,95.40
2022-11-14T03:53:41.380Z,95.40
2022-11-14T03:56:08.100Z,95.40
2022-11-14T03:58:34.798Z,95.40
2022-11-14T04:01:01.637Z,95.40
2022-11-14T04:03:28.329Z,95.40
2022-11-14T04:05:55.050Z,95.40
2022-11-14T04:08:21.778Z,95.40
2022-11-14T04:10:49.143Z,95.50
2022-11-14T04:13:16.131Z,95.50
2022-11-14T04:15:42.837Z,95.50
2022-11-14T04:18:09.533Z,95.50
2022-11-14T04:20:36.276Z,95.50
2022-11-14T04:23:02.990Z,95.50
2022-11-14T04:25:29.710Z,95.50
2022-11-14T04:27:56.443Z,95.50
2022-11-14T04:30:23.122Z,95.50
2022-11-14T04:32:49.844Z,95.50
2022-11-14T04:35:16.680Z,95.50
2022-11-14T04:37:43.442Z,95.50
2022-11-14T04:40:10.537Z,95.50
2022-11-14T04:42:37.276Z,95.50
2022-11-14T04:45:04.424Z,95.50
2022-11-14T04:47:31.197Z,95.50
2022-11-14T04:49:57.943Z,95.50
2022-11-14T04:52:24.700Z,95.50
2022-11-14T04:54:51.412Z,95.50
2022-11-14T04:57:18.134Z,95.50
2022-11-14T04:59:44.979Z,95.50
2022-11-14T05:02:11.713Z,95.50
2022-11-14T05:04:38.493Z,95.50
2022-11-14T05:07:05.276Z,95.50
2022-11-14T05:09:32.086Z,95.50
2022-11-14T05:11:58.770Z,95.50
2022-11-14T05:14:25.538Z,95.50
2022-11-14T05:16:52.230Z,95.50
2022-11-14T05:19:18.939Z,95.50
2022-11-14T05:21:45.775Z,95.50
2022-11-14T05:24:13.004Z,95.50
2022-11-14T05:26:39.788Z,95.50
2022-11-14T05:29:06.719Z,95.50
2022-11-14T05:31:33.703Z,95.50
2022-11-14T05:34:00.403Z,95.50
2022-11-14T05:36:27.200Z,95.50
2022-11-14T05:38:54.479Z,95.50
2022-11-14T05:41:21.197Z,95.50
2022-11-14T05:43:48.138Z,95.50
2022-11-14T05:46:16.407Z,95.50
2022-11-14T05:48:43.371Z,95.60
2022-11-14T05:51:12.451Z,95.60
2022-11-14T05:53:40.182Z,95.60
2022-11-14T05:56:11.547Z,95.60
2022-11-14T05:58:38.310Z,95.60
2022-11-14T06:01:09.785Z,95.60
2022-11-14T06:03:42.620Z,95.60
2022-11-14T06:06:11.595Z,95.60
2022-11-14T06:08:38.574Z,95.60
2022-11-14T06:11:23.360Z,95.60
2022-11-14T06:13:50.134Z,95.60
2022-11-14T06:16:19.518Z,95.60
2022-11-14T06:18:46.948Z,95.60
2022-11-14T06:21:16.535Z,95.60
2022-11-14T06:23:43.952Z,95.60
2022-11-14T06:26:30.603Z,95.60
2022-11-14T06:28:58.438Z,95.60
2022-11-14T06:31:25.912Z,95.60
2022-11-14T06:33:53.041Z,95.60
2022-11-14T06:36:20.319Z,95.60
2022-11-14T06:38:47.038Z,95.60
2022-11-14T06:41:19.903Z,95.60
2022-11-14T06:43:48.892Z,95.60
2022-11-14T06:46:17.937Z,95.60
2022-11-14T06:48:46.768Z,95.60
2022-11-14T06:51:15.346Z,95.50
2022-11-14T06:53:42.991Z,95.50
2022-11-14T06:56:12.530Z,95.50
2022-11-14T06:58:47.813Z,95.50
2022-11-14T07:01:16.383Z,95.60
2022-11-14T07:03:44.231Z,95.60
2022-11-14T07:06:14.345Z,95.60
2022-11-14T07:08:41.530Z,95.60
2022-11-14T07:11:23.053Z,95.60
2022-11-14T07:13:54.502Z,95.60
2022-11-14T07:16:23.948Z,95.60
2022-11-14T07:18:50.674Z,95.60
2022-11-14T07:21:17.470Z,95.60
2022-11-14T07:23:44.211Z,95.60
2022-11-14T07:26:11.920Z,95.60
2022-11-14T07:28:41.926Z,95.60
2022-11-14T07:31:12.457Z,95.70
2022-11-14T07:33:40.178Z,95.70
2022-11-14T07:36:07.548Z,95.70
2022-11-14T07:38:35.525Z,95.70
2022-11-14T07:41:10.882Z,95.70
2022-11-14T07:43:37.972Z,95.70
2022-11-14T07:46:16.099Z,95.80
2022-11-14T07:48:43.767Z,95.80
2022-11-14T07:51:15.399Z,95.80
2022-11-14T07:53:42.207Z,95.80
2022-11-14T07:56:09.956Z,95.80
2022-11-14T07:58:38.037Z,95.80
2022-11-14T08:01:06.504Z,95.80
2022-11-14T08:03:34.074Z,95.80
2022-11-14T08:06:09.503Z,95.80
2022-11-14T08:08:36.423Z,95.80
2022-11-14T08:11:03.498Z,95.80
2022-11-14T08:13:32.830Z,95.90
2022-11-14T08:16:12.340Z,95.90
2022-11-14T08:18:40.242Z,95.90
2022-11-14T08:21:07.259Z,95.90
2022-11-14T08:23:34.152Z,95.90
2022-11-14T08:26:01.080Z,95.90
2022-11-14T08:28:28.333Z,95.90
2022-11-14T08:31:00.785Z,95.90
2022-11-14T08:33:27.501Z,91.30
2022-11-14T08:35:54.272Z,91.30
2022-11-14T08:38:20.962Z,91.30
2022-11-14T08:40:47.699Z,91.30
2022-11-14T08:43:14.398Z,91.30
2022-11-14T08:45:41.083Z,91.30
2022-11-14T08:48:07.806Z,91.30
2022-11-14T08:50:34.517Z,91.30
2022-11-14T08:53:01.211Z,91.30
2022-11-14T08:55:27.982Z,91.30
2022-11-14T08:57:54.910Z,91.30
2022-11-14T09:00:21.986Z,91.30
2022-11-14T09:02:48.874Z,91.30
2022-11-14T09:05:15.795Z,91.30
2022-11-14T09:07:42.707Z,91.30
2022-11-14T09:10:10.002Z,91.30
2022-11-14T09:12:36.738Z,91.30
2022-11-14T09:15:03.627Z,91.40
2022-11-14T09:17:30.353Z,91.40
2022-11-14T09:19:57.398Z,91.30
2022-11-14T09:22:24.232Z,91.30
2022-11-14T09:24:52.067Z,91.30
2022-11-14T09:27:18.877Z,91.40
2022-11-14T09:29:45.659Z,91.40
2022-11-14T09:32:12.415Z,91.40
2022-11-14T09:34:42.957Z,91.40
2022-11-14T09:37:10.065Z,91.40
2022-11-14T09:39:40.512Z,91.40
2022-11-14T09:42:16.971Z,91.40
2022-11-14T09:44:50.713Z,91.40
2022-11-14T09:47:24.958Z,91.30
2022-11-14T09:49:56.096Z,91.30
2022-11-14T09:52:46.176Z,91.30
2022-11-14T09:55:14.513Z,91.30
2022-11-14T09:57:44.172Z,91.20
2022-11-14T10:00:39.261Z,91.20
2022-11-14T10:03:19.266Z,91.30
2022-11-14T10:05:55.004Z,91.10
2022-11-14T10:08:24.821Z,91.10
2022-11-14T10:11:10.534Z,91.00
2022-11-14T10:13:42.368Z,91.10
2022-11-14T10:16:30.048Z,91.10
2022-11-14T10:19:20.781Z,90.60
2022-11-14T10:21:50.579Z,90.20
2022-11-14T10:24:30.851Z,90.30
2022-11-14T10:27:02.228Z,86.10
2022-11-14T10:29:53.929Z,76.10
2022-11-14T10:33:09.279Z,60.90
2022-11-14T10:35:42.435Z,55.30
2022-11-14T10:38:36.942Z,61.90
2022-11-14T10:41:06.538Z,52.00
2022-11-14T10:43:42.183Z,37.30
2022-11-14T10:46:36.707Z,27.00
2022-11-14T10:49:21.101Z,20.50
2022-11-14T10:51:54.895Z,19.10
2022-11-14T10:54:51.139Z,20.20
2022-11-14T10:57:20.092Z,18.90
2022-11-14T10:59:47.463Z,11.50
2022-11-14T11:02:14.810Z,8.10
2022-11-14T11:04:43.223Z,6.60
2022-11-14T11:07:10.112Z,5.40
2022-11-14T11:09:58.217Z,1.00
2022-11-14T11:12:48.688Z,1.00
2022-11-14T11:15:20.221Z,1.00
2022-11-14T11:18:01.480Z,2.10
2022-11-14T11:20:36.004Z,10.10
2022-11-14T11:23:09.995Z,20.40
2022-11-14T11:25:38.828Z,27.00
2022-11-14T11:28:06.440Z,27.00
2022-11-14T11:30:34.138Z,29.10
2022-11-14T11:33:19.665Z,23.00
2022-11-14T11:35:49.522Z,17.30
2022-11-14T11:38:17.647Z,11.70
2022-11-14T11:40:48.405Z,10.80
2022-11-14T11:43:45.126Z,6.90
2022-11-14T11:46:29.452Z,1.00
2022-11-14T11:49:17.965Z,3.60
2022-11-14T11:51:46.417Z,4.00
2022-11-14T11:54:22.836Z,1.00
2022-11-14T11:56:58.464Z,1.00
2022-11-14T11:59:46.381Z,1.00
2022-11-14T12:02:25.110Z,1.00
2022-11-14T12:04:54.770Z,1.00
2022-11-14T12:07:46.966Z,1.00
2022-11-14T12:10:20.746Z,1.00
2022-11-14T12:13:15.562Z,1.00
2022-11-14T12:15:49.709Z,1.00
2022-11-14T12:18:43.733Z,1.00
2022-11-14T12:21:24.330Z,1.00
2022-11-14T12:24:11.994Z,1.00
2022-11-14T12:26:49.935Z,1.00
2022-11-14T12:29:44.130Z,1.00
2022-11-14T12:32:15.904Z,1.00
2022-11-14T12:34:46.110Z,1.00
2022-11-14T12:37:38.133Z,1.00
2022-11-14T12:40:06.391Z,1.00
2022-11-14T12:42:33.898Z,1.00
2022-11-14T12:45:00.689Z,1.00
2022-11-14T12:47:28.893Z,1.00
2022-11-14T12:49:56.587Z,1.00
2022-11-14T12:52:44.275Z,1.00
2022-11-14T12:55:26.268Z,1.00
2022-11-14T12:58:01.496Z,1.00
2022-11-14T13:00:28.666Z,1.00
2022-11-14T13:03:20.475Z,1.00
2022-11-14T13:06:18.457Z,1.30
2022-11-14T13:09:07.154Z,2.70
2022-11-14T13:12:06.645Z,2.50
2022-11-14T13:15:10.991Z,2.50
2022-11-14T13:17:56.331Z,1.00
2022-11-14T13:20:47.865Z,1.00
2022-11-14T13:23:43.353Z,1.00
2022-11-14T13:26:10.157Z,1.00
2022-11-14T13:28:48.025Z,1.00
2022-11-14T13:31:35.906Z,1.00
2022-11-14T13:34:43.791Z,1.00
2022-11-14T13:37:47.129Z,2.70
2022-11-14T13:40:13.895Z,4.30
2022-11-14T13:43:11.250Z,2.20
2022-11-14T13:45:45.258Z,3.00
2022-11-14T13:48:20.881Z,1.10
2022-11-14T13:50:53.167Z,1.90
2022-11-14T13:53:24.798Z,3.00
2022-11-14T13:56:04.474Z,3.00
2022-11-14T13:58:55.081Z,3.90
2022-11-14T14:01:37.122Z,2.30
2022-11-14T14:04:23.686Z,5.60
2022-11-14T14:07:03.325Z,1.00
2022-11-14T14:09:43.850Z,1.00
2022-11-14T14:12:33.706Z,1.00
2022-11-14T14:15:23.189Z,1.00
2022-11-14T14:18:09.484Z,1.00
2022-11-14T14:20:36.165Z,1.00
2022-11-14T14:23:26.247Z,1.00
2022-11-14T14:26:44.992Z,1.00
2022-11-14T14:29:33.191Z,1.00
2022-11-14T14:32:17.334Z,1.00
2022-11-14T14:34:44.875Z,1.00
2022-11-14T14:37:23.444Z,1.00
2022-11-14T14:39:57.528Z,1.00
2022-11-14T14:42:29.483Z,2.10
2022-11-14T14:44:59.188Z,1.80
2022-11-14T14:47:32.503Z,1.00
2022-11-14T14:50:05.014Z,1.00
2022-11-14T14:52:35.982Z,1.00
2022-11-14T14:55:04.456Z,1.20
2022-11-14T14:57:31.175Z,5.70
2022-11-14T15:00:02.228Z,8.60
2022-11-14T15:02:29.471Z,13.60
2022-11-14T15:04:59.264Z,16.90
2022-11-14T15:07:29.078Z,19.30
2022-11-14T15:09:59.371Z,22.60
2022-11-14T15:12:29.073Z,24.90
2022-11-14T15:14:57.478Z,30.00
2022-11-14T15:17:25.091Z,35.60
2022-11-14T15:19:54.240Z,42.40
2022-11-14T15:22:25.785Z,51.50
2022-11-14T15:25:10.730Z,61.50
2022-11-14T15:27:51.355Z,62.20
2022-11-14T15:30:36.811Z,63.20
2022-11-14T15:33:06.213Z,64.60
2022-11-14T15:35:35.141Z,65.50
2022-11-14T15:38:28.922Z,66.90
2022-11-14T15:41:10.140Z,69.00
2022-11-14T15:43:38.363Z,71.00
2022-11-14T15:46:24.457Z,73.20
2022-11-14T15:48:51.426Z,75.50
2022-11-14T15:51:18.288Z,78.70
2022-11-14T15:53:49.536Z,80.00
2022-11-14T15:56:16.281Z,82.60
2022-11-14T15:58:46.708Z,83.20
2022-11-14T16:01:24.181Z,83.00
2022-11-14T16:03:51.661Z,82.80
2022-11-14T16:06:18.453Z,84.80
2022-11-14T16:08:45.253Z,85.60
2022-11-14T16:11:11.973Z,84.90
2022-11-14T16:13:38.734Z,85.50
2022-11-14T16:16:05.699Z,85.50
2022-11-14T16:18:32.420Z,86.50
2022-11-14T16:20:59.825Z,86.30
2022-11-14T16:23:26.874Z,86.50
2022-11-14T16:25:53.576Z,87.60
2022-11-14T16:28:20.298Z,88.00
2022-11-14T16:30:47.006Z,88.10
2022-11-14T16:33:13.684Z,88.30
2022-11-14T16:35:40.403Z,88.40
2022-11-14T16:38:07.768Z,88.20
2022-11-14T16:40:34.473Z,88.10
2022-11-14T16:43:01.677Z,88.20
2022-11-14T16:45:28.662Z,86.40
2022-11-14T16:47:55.386Z,87.20
2022-11-14T16:50:22.139Z,87.20
2022-11-14T16:52:49.217Z,86.70
2022-11-14T16:55:16.064Z,86.70
2022-11-14T16:57:42.800Z,86.30
2022-11-14T17:00:12.379Z,86.70
2022-11-14T17:02:42.570Z,85.80
2022-11-14T17:05:09.611Z,85.30
2022-11-14T17:07:36.339Z,84.20
2022-11-14T17:10:04.061Z,82.10
2022-11-14T17:12:32.208Z,78.50
2022-11-14T17:14:59.154Z,70.50
2022-11-14T17:17:26.075Z,67.70
2022-11-14T17:19:52.834Z,70.20
2022-11-14T17:22:20.080Z,68.20
2022-11-14T17:24:46.866Z,70.00
2022-11-14T17:27:13.633Z,74.20
2022-11-14T17:29:40.348Z,74.70
2022-11-14T17:32:07.173Z,80.10
2022-11-14T17:34:33.920Z,81.80
2022-11-14T17:37:00.651Z,82.60
2022-11-14T17:39:30.437Z,83.90
2022-11-14T17:41:57.216Z,84.00
2022-11-14T17:44:23.953Z,85.60
2022-11-14T17:46:50.652Z,85.80
2022-11-14T17:49:17.433Z,86.60
2022-11-14T17:51:44.176Z,86.90
2022-11-14T17:54:10.939Z,86.50
2022-11-14T17:56:41.236Z,87.00
2022-11-14T17:59:12.588Z,86.80
2022-11-14T18:01:39.418Z,87.20
2022-11-14T18:04:06.779Z,87.60
2022-11-14T18:06:33.976Z,87.80
2022-11-14T18:09:04.930Z,88.30
2022-11-14T18:11:31.813Z,88.40
2022-11-14T18:13:58.873Z,88.80
2022-11-14T18:16:31.416Z,87.50
2022-11-14T18:19:06.379Z,88.80
2022-11-14T18:21:33.181Z,89.20
2022-11-14T18:24:00.471Z,89.40
2022-11-14T18:26:28.939Z,89.30
2022-11-14T18:28:57.795Z,89.70
2022-11-14T18:31:25.355Z,90.10
2022-11-14T18:33:52.359Z,90.30
2022-11-14T18:36:19.607Z,90.50
2022-11-14T18:38:46.738Z,90.50
2022-11-14T18:41:16.192Z,90.60
2022-11-14T18:43:44.522Z,90.60
2022-11-14T18:46:15.071Z,90.50
2022-11-14T18:48:44.469Z,90.50
2022-11-14T18:51:16.832Z,90.60
2022-11-14T18:53:43.942Z,90.70
2022-11-14T18:56:16.466Z,90.60
2022-11-14T18:58:44.373Z,90.70
2022-11-14T19:01:24.128Z,90.70
2022-11-14T19:03:52.159Z,90.80
2022-11-14T19:06:19.413Z,90.80
2022-11-14T19:08:46.430Z,90.80
2022-11-14T19:11:34.227Z,90.90
2022-11-14T19:14:02.428Z,91.00
2022-11-14T19:16:31.095Z,91.00
2022-11-14T19:18:58.652Z,91.00
2022-11-14T19:21:25.457Z,91.10
2022-11-14T19:23:54.589Z,91.10
2022-11-14T19:26:22.473Z,91.10
2022-11-14T19:28:49.634Z,91.20
2022-11-14T19:31:17.774Z,91.20
2022-11-14T19:33:47.286Z,91.10
2022-11-14T19:36:18.814Z,91.20
2022-11-14T19:39:01.514Z,91.20
2022-11-14T19:41:30.027Z,91.20
2022-11-14T19:43:59.507Z,91.20
2022-11-14T19:46:28.791Z,91.20
2022-11-14T19:49:00.320Z,91.20
2022-11-14T19:51:29.020Z,91.20
2022-11-14T19:53:57.713Z,91.20
2022-11-14T19:56:24.928Z,91.20
2022-11-14T19:58:53.610Z,91.20
2022-11-14T20:01:22.864Z,91.20
2022-11-14T20:03:58.384Z,91.20
2022-11-14T20:06:34.187Z,91.20
2022-11-14T20:09:04.498Z,91.20
2022-11-14T20:11:31.493Z,91.20
2022-11-14T20:13:59.702Z,91.20
2022-11-14T20:16:30.154Z,91.20
2022-11-14T20:19:00.661Z,91.20
2022-11-14T20:21:30.425Z,91.20
2022-11-14T20:23:57.536Z,91.20
2022-11-14T20:26:24.668Z,91.20
2022-11-14T20:28:53.901Z,91.20
2022-11-14T20:31:27.277Z,91.20
2022-11-14T20:33:55.057Z,91.20
2022-11-14T20:36:24.602Z,91.20
2022-11-14T20:38:52.248Z,91.20
2022-11-14T20:41:19.565Z,91.20
2022-11-14T20:43:46.772Z,91.20
2022-11-14T20:46:18.894Z,91.10
2022-11-14T20:48:46.511Z,91.10
2022-11-14T20:51:19.911Z,91.10
2022-11-14T20:53:46.803Z,91.10
2022-11-14T20:56:14.804Z,91.20
2022-11-14T20:58:42.900Z,91.20
2022-11-14T21:01:10.788Z,91.20
2022-11-14T21:03:40.738Z,91.20
2022-11-14T21:06:11.011Z,91.20
2022-11-14T21:08:38.392Z,91.20
2022-11-14T21:11:07.785Z,91.20
2022-11-14T21:13:54.998Z,91.20
2022-11-14T21:16:25.677Z,91.20
2022-11-14T21:18:56.874Z,91.20
2022-11-14T21:21:24.701Z,91.20
2022-11-14T21:23:51.826Z,91.20
2022-11-14T21:26:21.898Z,91.20
2022-11-14T21:28:51.665Z,91.20
2022-11-14T21:31:23.204Z,91.20
2022-11-14T21:33:53.887Z,91.20
2022-11-14T21:39:07.510Z,91.20
2022-11-14T21:41:34.279Z,91.20
2022-11-14T21:44:02.964Z,91.20
2022-11-14T21:46:29.883Z,91.20
2022-11-14T21:48:57.404Z,91.20
2022-11-14T21:51:28.291Z,91.30
2022-11-14T21:53:58.573Z,91.30
2022-11-14T21:56:30.261Z,91.30
2022-11-14T21:59:13.534Z,91.20
2022-11-14T22:02:08.738Z,91.20
2022-11-14T22:04:36.227Z,91.20
2022-11-14T22:07:05.943Z,91.20
2022-11-14T22:09:33.434Z,91.20
2022-11-14T22:12:00.509Z,91.20
2022-11-14T22:14:27.510Z,91.20
2022-11-14T22:16:54.208Z,91.20
2022-11-14T22:19:21.581Z,91.20
2022-11-14T22:21:48.988Z,91.20
2022-11-14T22:24:15.794Z,91.20
2022-11-14T22:26:42.541Z,91.20
2022-11-14T22:29:09.338Z,91.20
2022-11-14T22:31:37.612Z,91.20
2022-11-14T22:34:04.703Z,91.20
2022-11-14T22:36:31.488Z,91.20
2022-11-14T22:38:58.515Z,91.20
2022-11-14T22:41:32.829Z,91.20
2022-11-14T22:44:00.571Z,91.20
2022-11-14T22:46:27.717Z,91.20
2022-11-14T22:48:55.015Z,91.20
2022-11-14T22:51:24.113Z,91.20
2022-11-14T22:54:00.850Z,91.20
2022-11-14T22:56:29.299Z,91.20
2022-11-14T22:58:58.714Z,91.20
2022-11-14T23:01:28.007Z,91.20
2022-11-14T23:03:56.603Z,91.20
2022-11-14T23:06:24.492Z,91.20
2022-11-14T23:08:52.052Z,91.20
2022-11-14T23:11:21.514Z,91.20
2022-11-14T23:13:50.950Z,91.20
2022-11-14T23:16:20.241Z,91.20
2022-11-14T23:18:48.233Z,91.20
2022-11-14T23:21:20.307Z,91.20
2022-11-14T23:23:51.934Z,91.20
2022-11-14T23:26:19.178Z,91.20
2022-11-14T23:28:45.941Z,91.20
2022-11-14T23:31:13.373Z,91.20
2022-11-14T23:33:40.090Z,91.20
2022-11-14T23:36:06.970Z,91.20
2022-11-14T23:38:33.757Z,91.20
2022-11-14T23:41:01.830Z,91.20
2022-11-14T23:43:30.067Z,91.20
2022-11-14T23:45:57.795Z,91.20
2022-11-14T23:48:24.758Z,91.20
2022-11-14T23:50:56.260Z,91.20
2022-11-14T23:53:23.505Z,91.20
2022-11-14T23:55:54.874Z,91.20
2022-11-14T23:58:23.457Z,91.20
